sensor_id;sensor_type;location;lat;lon;timestamp;P1;durP1;ratioP1;P2;durP2;ratioP2
6193;SDS011;3130;41.564;23.280;2024-03-25T00:02:22;9.23;;;7.33;;
6193;SDS011;3130;41.564;23.280;2024-03-25T00:04:49;14.57;;;9.87;;
6193;SDS011;3130;41.564;23.280;2024-03-25T00:07:16;21.57;;;12.80;;
6193;SDS011;3130;41.564;23.280;2024-03-25T00:09:42;25.00;;;15.67;;
6193;SDS011;3130;41.564;23.280;2024-03-25T00:12:10;13.33;;;8.33;;
6193;SDS011;3130;41.564;23.280;2024-03-25T00:14:36;13.93;;;10.17;;
6193;SDS011;3130;41.564;23.280;2024-03-25T00:17:05;11.30;;;8.63;;
6193;SDS011;3130;41.564;23.280;2024-03-25T00:19:33;11.80;;;7.90;;
6193;SDS011;3130;41.564;23.280;2024-03-25T00:22:00;10.93;;;8.53;;
6193;SDS011;3130;41.564;23.280;2024-03-25T00:24:26;8.27;;;7.07;;
6193;SDS011;3130;41.564;23.280;2024-03-25T00:26:53;10.37;;;8.23;;
6193;SDS011;3130;41.564;23.280;2024-03-25T00:29:20;8.37;;;7.33;;
6193;SDS011;3130;41.564;23.280;2024-03-25T00:31:47;10.03;;;7.70;;
6193;SDS011;3130;41.564;23.280;2024-03-25T00:34:14;11.30;;;9.03;;
6193;SDS011;3130;41.564;23.280;2024-03-25T00:36:42;9.87;;;8.23;;
6193;SDS011;3130;41.564;23.280;2024-03-25T00:39:09;12.90;;;8.33;;
6193;SDS011;3130;41.564;23.280;2024-03-25T00:41:36;10.60;;;7.90;;
6193;SDS011;3130;41.564;23.280;2024-03-25T00:44:03;10.50;;;9.07;;
6193;SDS011;3130;41.564;23.280;2024-03-25T00:46:30;8.70;;;7.70;;
6193;SDS011;3130;41.564;23.280;2024-03-25T00:48:56;9.20;;;7.57;;
6193;SDS011;3130;41.564;23.280;2024-03-25T00:51:25;11.50;;;8.80;;
6193;SDS011;3130;41.564;23.280;2024-03-25T00:53:51;8.27;;;7.43;;
6193;SDS011;3130;41.564;23.280;2024-03-25T00:56:19;10.07;;;7.50;;
6193;SDS011;3130;41.564;23.280;2024-03-25T00:58:46;8.87;;;6.00;;
6193;SDS011;3130;41.564;23.280;2024-03-25T01:01:13;10.80;;;6.60;;
6193;SDS011;3130;41.564;23.280;2024-03-25T01:03:39;4.27;;;3.90;;
6193;SDS011;3130;41.564;23.280;2024-03-25T01:06:06;5.60;;;3.90;;
6193;SDS011;3130;41.564;23.280;2024-03-25T01:08:34;4.00;;;2.90;;
6193;SDS011;3130;41.564;23.280;2024-03-25T01:11:01;2.20;;;2.10;;
6193;SDS011;3130;41.564;23.280;2024-03-25T01:13:28;2.20;;;2.10;;
6193;SDS011;3130;41.564;23.280;2024-03-25T01:15:55;1.77;;;1.67;;
6193;SDS011;3130;41.564;23.280;2024-03-25T01:18:21;1.47;;;1.40;;
6193;SDS011;3130;41.564;23.280;2024-03-25T01:20:48;1.20;;;1.20;;
6193;SDS011;3130;41.564;23.280;2024-03-25T01:23:15;1.67;;;1.67;;
6193;SDS011;3130;41.564;23.280;2024-03-25T01:25:44;2.23;;;2.13;;
6193;SDS011;3130;41.564;23.280;2024-03-25T01:28:10;1.50;;;1.50;;
6193;SDS011;3130;41.564;23.280;2024-03-25T01:30:37;1.80;;;1.70;;
6193;SDS011;3130;41.564;23.280;2024-03-25T01:33:04;1.93;;;1.83;;
6193;SDS011;3130;41.564;23.280;2024-03-25T01:35:32;2.00;;;1.90;;
6193;SDS011;3130;41.564;23.280;2024-03-25T01:37:58;1.73;;;1.67;;
6193;SDS011;3130;41.564;23.280;2024-03-25T01:40:25;1.53;;;1.53;;
6193;SDS011;3130;41.564;23.280;2024-03-25T01:42:56;1.60;;;1.60;;
6193;SDS011;3130;41.564;23.280;2024-03-25T01:45:24;1.70;;;1.70;;
6193;SDS011;3130;41.564;23.280;2024-03-25T01:47:51;1.57;;;1.57;;
6193;SDS011;3130;41.564;23.280;2024-03-25T01:50:19;1.60;;;1.60;;
6193;SDS011;3130;41.564;23.280;2024-03-25T01:52:47;1.50;;;1.50;;
6193;SDS011;3130;41.564;23.280;2024-03-25T01:55:15;1.40;;;1.40;;
6193;SDS011;3130;41.564;23.280;2024-03-25T01:57:46;1.73;;;1.73;;
6193;SDS011;3130;41.564;23.280;2024-03-25T02:00:16;1.67;;;1.67;;
6193;SDS011;3130;41.564;23.280;2024-03-25T02:02:43;4.60;;;1.80;;
6193;SDS011;3130;41.564;23.280;2024-03-25T02:05:12;1.50;;;1.50;;
6193;SDS011;3130;41.564;23.280;2024-03-25T02:07:38;1.53;;;1.53;;
6193;SDS011;3130;41.564;23.280;2024-03-25T02:10:07;1.97;;;1.80;;
6193;SDS011;3130;41.564;23.280;2024-03-25T02:12:35;1.77;;;1.77;;
6193;SDS011;3130;41.564;23.280;2024-03-25T02:15:04;1.80;;;1.70;;
6193;SDS011;3130;41.564;23.280;2024-03-25T02:17:32;1.90;;;1.80;;
6193;SDS011;3130;41.564;23.280;2024-03-25T02:20:00;2.00;;;1.90;;
6193;SDS011;3130;41.564;23.280;2024-03-25T02:22:26;1.77;;;1.67;;
6193;SDS011;3130;41.564;23.280;2024-03-25T02:24:54;1.60;;;1.50;;
6193;SDS011;3130;41.564;23.280;2024-03-25T02:27:25;1.37;;;1.37;;
6193;SDS011;3130;41.564;23.280;2024-03-25T02:30:01;1.43;;;1.43;;
6193;SDS011;3130;41.564;23.280;2024-03-25T02:32:28;1.57;;;1.57;;
6193;SDS011;3130;41.564;23.280;2024-03-25T02:34:56;1.70;;;1.70;;
6193;SDS011;3130;41.564;23.280;2024-03-25T02:37:23;1.67;;;1.57;;
6193;SDS011;3130;41.564;23.280;2024-03-25T02:39:52;1.80;;;1.77;;
6193;SDS011;3130;41.564;23.280;2024-03-25T02:42:20;1.83;;;1.83;;
6193;SDS011;3130;41.564;23.280;2024-03-25T02:44:49;1.47;;;1.47;;
6193;SDS011;3130;41.564;23.280;2024-03-25T02:47:16;1.90;;;1.80;;
6193;SDS011;3130;41.564;23.280;2024-03-25T02:49:44;1.87;;;1.87;;
6193;SDS011;3130;41.564;23.280;2024-03-25T02:52:11;2.17;;;2.07;;
6193;SDS011;3130;41.564;23.280;2024-03-25T02:54:38;1.87;;;1.80;;
6193;SDS011;3130;41.564;23.280;2024-03-25T02:57:04;1.60;;;1.60;;
6193;SDS011;3130;41.564;23.280;2024-03-25T02:59:31;1.40;;;1.40;;
6193;SDS011;3130;41.564;23.280;2024-03-25T03:01:59;1.57;;;1.57;;
6193;SDS011;3130;41.564;23.280;2024-03-25T03:04:26;1.83;;;1.83;;
6193;SDS011;3130;41.564;23.280;2024-03-25T03:06:52;1.70;;;1.70;;
6193;SDS011;3130;41.564;23.280;2024-03-25T03:09:20;2.40;;;2.20;;
6193;SDS011;3130;41.564;23.280;2024-03-25T03:11:46;2.23;;;2.13;;
6193;SDS011;3130;41.564;23.280;2024-03-25T03:14:13;1.90;;;1.80;;
6193;SDS011;3130;41.564;23.280;2024-03-25T03:16:40;1.80;;;1.80;;
6193;SDS011;3130;41.564;23.280;2024-03-25T03:19:08;1.83;;;1.73;;
6193;SDS011;3130;41.564;23.280;2024-03-25T03:21:35;2.00;;;1.90;;
6193;SDS011;3130;41.564;23.280;2024-03-25T03:24:03;1.83;;;1.83;;
6193;SDS011;3130;41.564;23.280;2024-03-25T03:26:29;1.97;;;1.87;;
6193;SDS011;3130;41.564;23.280;2024-03-25T03:28:56;1.80;;;1.77;;
6193;SDS011;3130;41.564;23.280;2024-03-25T03:31:23;2.20;;;2.10;;
6193;SDS011;3130;41.564;23.280;2024-03-25T03:33:50;1.80;;;1.80;;
6193;SDS011;3130;41.564;23.280;2024-03-25T03:36:18;2.47;;;2.37;;
6193;SDS011;3130;41.564;23.280;2024-03-25T03:38:47;2.10;;;2.00;;
6193;SDS011;3130;41.564;23.280;2024-03-25T03:41:15;2.10;;;1.90;;
6193;SDS011;3130;41.564;23.280;2024-03-25T03:43:42;2.50;;;2.40;;
6193;SDS011;3130;41.564;23.280;2024-03-25T03:46:08;2.13;;;2.00;;
6193;SDS011;3130;41.564;23.280;2024-03-25T03:48:36;2.00;;;1.90;;
6193;SDS011;3130;41.564;23.280;2024-03-25T03:51:03;2.20;;;2.10;;
6193;SDS011;3130;41.564;23.280;2024-03-25T03:53:32;2.83;;;1.80;;
6193;SDS011;3130;41.564;23.280;2024-03-25T03:56:00;1.40;;;1.40;;
6193;SDS011;3130;41.564;23.280;2024-03-25T03:58:29;2.03;;;1.93;;
6193;SDS011;3130;41.564;23.280;2024-03-25T04:00:55;2.03;;;1.93;;
6193;SDS011;3130;41.564;23.280;2024-03-25T04:03:23;2.23;;;2.13;;
6193;SDS011;3130;41.564;23.280;2024-03-25T04:05:49;2.10;;;2.00;;
6193;SDS011;3130;41.564;23.280;2024-03-25T04:08:16;2.03;;;1.93;;
6193;SDS011;3130;41.564;23.280;2024-03-25T04:10:44;1.60;;;1.60;;
6193;SDS011;3130;41.564;23.280;2024-03-25T04:13:12;1.87;;;1.80;;
6193;SDS011;3130;41.564;23.280;2024-03-25T04:15:38;1.60;;;1.60;;
6193;SDS011;3130;41.564;23.280;2024-03-25T04:18:06;2.10;;;2.00;;
6193;SDS011;3130;41.564;23.280;2024-03-25T04:20:35;2.40;;;2.30;;
6193;SDS011;3130;41.564;23.280;2024-03-25T04:23:04;2.00;;;1.90;;
6193;SDS011;3130;41.564;23.280;2024-03-25T04:25:32;2.23;;;2.13;;
6193;SDS011;3130;41.564;23.280;2024-03-25T04:28:01;2.07;;;1.97;;
6193;SDS011;3130;41.564;23.280;2024-03-25T04:30:27;2.20;;;2.10;;
6193;SDS011;3130;41.564;23.280;2024-03-25T04:32:54;1.87;;;1.83;;
6193;SDS011;3130;41.564;23.280;2024-03-25T04:35:20;1.97;;;1.87;;
6193;SDS011;3130;41.564;23.280;2024-03-25T04:37:48;1.80;;;1.80;;
6193;SDS011;3130;41.564;23.280;2024-03-25T04:40:14;2.17;;;2.07;;
6193;SDS011;3130;41.564;23.280;2024-03-25T04:42:41;1.70;;;1.70;;
6193;SDS011;3130;41.564;23.280;2024-03-25T04:45:09;2.07;;;1.97;;
6193;SDS011;3130;41.564;23.280;2024-03-25T04:47:35;1.67;;;1.67;;
6193;SDS011;3130;41.564;23.280;2024-03-25T04:50:01;2.17;;;2.07;;
6193;SDS011;3130;41.564;23.280;2024-03-25T04:52:28;1.77;;;1.77;;
6193;SDS011;3130;41.564;23.280;2024-03-25T04:54:54;2.00;;;1.90;;
6193;SDS011;3130;41.564;23.280;2024-03-25T04:57:20;2.10;;;2.00;;
6193;SDS011;3130;41.564;23.280;2024-03-25T04:59:46;2.17;;;2.07;;
6193;SDS011;3130;41.564;23.280;2024-03-25T05:02:14;2.23;;;2.13;;
6193;SDS011;3130;41.564;23.280;2024-03-25T05:04:40;3.93;;;3.63;;
6193;SDS011;3130;41.564;23.280;2024-03-25T05:07:06;2.40;;;2.20;;
6193;SDS011;3130;41.564;23.280;2024-03-25T05:09:32;2.63;;;2.43;;
6193;SDS011;3130;41.564;23.280;2024-03-25T05:11:58;1.87;;;1.80;;
6193;SDS011;3130;41.564;23.280;2024-03-25T05:14:24;2.80;;;2.70;;
6193;SDS011;3130;41.564;23.280;2024-03-25T05:16:51;2.40;;;2.30;;
6193;SDS011;3130;41.564;23.280;2024-03-25T05:19:18;2.30;;;2.20;;
6193;SDS011;3130;41.564;23.280;2024-03-25T05:21:44;1.63;;;1.63;;
6193;SDS011;3130;41.564;23.280;2024-03-25T05:24:11;2.47;;;2.27;;
6193;SDS011;3130;41.564;23.280;2024-03-25T05:26:37;1.93;;;1.83;;
6193;SDS011;3130;41.564;23.280;2024-03-25T05:29:03;2.03;;;1.93;;
6193;SDS011;3130;41.564;23.280;2024-03-25T05:31:29;2.30;;;2.20;;
6193;SDS011;3130;41.564;23.280;2024-03-25T05:33:55;6.13;;;4.77;;
6193;SDS011;3130;41.564;23.280;2024-03-25T05:36:23;2.00;;;1.90;;
6193;SDS011;3130;41.564;23.280;2024-03-25T05:38:49;3.03;;;2.83;;
6193;SDS011;3130;41.564;23.280;2024-03-25T05:41:15;2.60;;;2.20;;
6193;SDS011;3130;41.564;23.280;2024-03-25T05:43:41;2.77;;;2.57;;
6193;SDS011;3130;41.564;23.280;2024-03-25T05:46:07;2.67;;;2.57;;
6193;SDS011;3130;41.564;23.280;2024-03-25T05:48:34;1.93;;;1.83;;
6193;SDS011;3130;41.564;23.280;2024-03-25T05:51:00;2.07;;;1.97;;
6193;SDS011;3130;41.564;23.280;2024-03-25T05:53:28;2.83;;;2.60;;
6193;SDS011;3130;41.564;23.280;2024-03-25T05:55:55;2.83;;;2.63;;
6193;SDS011;3130;41.564;23.280;2024-03-25T05:58:21;2.90;;;2.70;;
6193;SDS011;3130;41.564;23.280;2024-03-25T06:00:50;3.17;;;2.97;;
6193;SDS011;3130;41.564;23.280;2024-03-25T06:03:16;3.17;;;2.87;;
6193;SDS011;3130;41.564;23.280;2024-03-25T06:05:43;2.57;;;2.37;;
6193;SDS011;3130;41.564;23.280;2024-03-25T06:08:10;3.23;;;2.60;;
6193;SDS011;3130;41.564;23.280;2024-03-25T06:10:38;4.27;;;2.90;;
6193;SDS011;3130;41.564;23.280;2024-03-25T06:13:04;3.20;;;2.90;;
6193;SDS011;3130;41.564;23.280;2024-03-25T06:15:30;6.30;;;5.70;;
6193;SDS011;3130;41.564;23.280;2024-03-25T06:17:56;2.83;;;2.60;;
6193;SDS011;3130;41.564;23.280;2024-03-25T06:20:23;2.50;;;2.40;;
6193;SDS011;3130;41.564;23.280;2024-03-25T06:22:49;3.03;;;2.83;;
6193;SDS011;3130;41.564;23.280;2024-03-25T06:25:15;4.03;;;3.00;;
6193;SDS011;3130;41.564;23.280;2024-03-25T06:27:43;2.83;;;2.53;;
6193;SDS011;3130;41.564;23.280;2024-03-25T06:30:10;2.87;;;2.33;;
6193;SDS011;3130;41.564;23.280;2024-03-25T06:32:55;3.00;;;2.80;;
6193;SDS011;3130;41.564;23.280;2024-03-25T06:35:41;2.70;;;2.50;;
6193;SDS011;3130;41.564;23.280;2024-03-25T06:38:08;3.33;;;3.03;;
6193;SDS011;3130;41.564;23.280;2024-03-25T06:40:34;2.57;;;2.37;;
6193;SDS011;3130;41.564;23.280;2024-03-25T06:43:02;3.27;;;3.00;;
6193;SDS011;3130;41.564;23.280;2024-03-25T06:45:28;2.80;;;2.57;;
6193;SDS011;3130;41.564;23.280;2024-03-25T06:47:54;4.13;;;3.70;;
6193;SDS011;3130;41.564;23.280;2024-03-25T06:50:21;2.93;;;2.73;;
6193;SDS011;3130;41.564;23.280;2024-03-25T06:52:47;3.90;;;2.17;;
6193;SDS011;3130;41.564;23.280;2024-03-25T06:55:13;5.00;;;3.27;;
6193;SDS011;3130;41.564;23.280;2024-03-25T06:57:39;2.40;;;2.30;;
6193;SDS011;3130;41.564;23.280;2024-03-25T07:00:07;2.30;;;2.20;;
6193;SDS011;3130;41.564;23.280;2024-03-25T07:02:34;2.53;;;2.33;;
6193;SDS011;3130;41.564;23.280;2024-03-25T07:05:00;3.73;;;2.43;;
6193;SDS011;3130;41.564;23.280;2024-03-25T07:07:26;2.70;;;2.13;;
6193;SDS011;3130;41.564;23.280;2024-03-25T07:09:53;3.83;;;3.00;;
6193;SDS011;3130;41.564;23.280;2024-03-25T07:12:19;2.43;;;2.23;;
6193;SDS011;3130;41.564;23.280;2024-03-25T07:14:45;6.33;;;2.90;;
6193;SDS011;3130;41.564;23.280;2024-03-25T07:17:13;2.43;;;2.27;;
6193;SDS011;3130;41.564;23.280;2024-03-25T07:19:39;3.67;;;3.37;;
6193;SDS011;3130;41.564;23.280;2024-03-25T07:22:05;2.80;;;2.60;;
6193;SDS011;3130;41.564;23.280;2024-03-25T07:24:31;3.20;;;2.90;;
6193;SDS011;3130;41.564;23.280;2024-03-25T07:26:57;14.60;;;3.20;;
6193;SDS011;3130;41.564;23.280;2024-03-25T07:29:24;3.40;;;3.17;;
6193;SDS011;3130;41.564;23.280;2024-03-25T07:31:50;3.20;;;3.00;;
6193;SDS011;3130;41.564;23.280;2024-03-25T07:34:17;3.60;;;3.40;;
6193;SDS011;3130;41.564;23.280;2024-03-25T07:36:44;4.20;;;3.80;;
6193;SDS011;3130;41.564;23.280;2024-03-25T07:39:10;3.60;;;2.73;;
6193;SDS011;3130;41.564;23.280;2024-03-25T07:41:36;3.10;;;2.93;;
6193;SDS011;3130;41.564;23.280;2024-03-25T07:44:02;3.73;;;2.93;;
6193;SDS011;3130;41.564;23.280;2024-03-25T07:46:29;3.43;;;3.13;;
6193;SDS011;3130;41.564;23.280;2024-03-25T07:48:55;2.93;;;2.43;;
6193;SDS011;3130;41.564;23.280;2024-03-25T07:51:23;3.43;;;2.87;;
6193;SDS011;3130;41.564;23.280;2024-03-25T07:53:49;3.63;;;3.27;;
6193;SDS011;3130;41.564;23.280;2024-03-25T07:56:15;4.67;;;3.47;;
6193;SDS011;3130;41.564;23.280;2024-03-25T07:58:41;6.33;;;4.13;;
6193;SDS011;3130;41.564;23.280;2024-03-25T08:01:08;3.80;;;3.50;;
6193;SDS011;3130;41.564;23.280;2024-03-25T08:03:34;4.13;;;3.23;;
6193;SDS011;3130;41.564;23.280;2024-03-25T08:06:00;5.03;;;4.53;;
6193;SDS011;3130;41.564;23.280;2024-03-25T08:08:27;4.00;;;3.67;;
6193;SDS011;3130;41.564;23.280;2024-03-25T08:10:54;3.13;;;2.83;;
6193;SDS011;3130;41.564;23.280;2024-03-25T08:13:20;5.37;;;3.77;;
6193;SDS011;3130;41.564;23.280;2024-03-25T08:15:46;4.47;;;3.63;;
6193;SDS011;3130;41.564;23.280;2024-03-25T08:18:12;4.70;;;4.30;;
6193;SDS011;3130;41.564;23.280;2024-03-25T08:20:38;5.30;;;4.10;;
6193;SDS011;3130;41.564;23.280;2024-03-25T08:23:04;8.70;;;3.53;;
6193;SDS011;3130;41.564;23.280;2024-03-25T08:25:32;6.37;;;3.73;;
6193;SDS011;3130;41.564;23.280;2024-03-25T08:27:58;3.70;;;3.00;;
6193;SDS011;3130;41.564;23.280;2024-03-25T08:30:25;4.13;;;3.67;;
6193;SDS011;3130;41.564;23.280;2024-03-25T08:32:51;5.60;;;4.30;;
6193;SDS011;3130;41.564;23.280;2024-03-25T08:35:17;4.80;;;3.73;;
6193;SDS011;3130;41.564;23.280;2024-03-25T08:37:43;4.60;;;4.17;;
6193;SDS011;3130;41.564;23.280;2024-03-25T08:40:10;7.87;;;3.17;;
6193;SDS011;3130;41.564;23.280;2024-03-25T08:42:37;3.63;;;2.80;;
6193;SDS011;3130;41.564;23.280;2024-03-25T08:45:04;4.30;;;3.90;;
6193;SDS011;3130;41.564;23.280;2024-03-25T08:47:31;4.23;;;3.60;;
6193;SDS011;3130;41.564;23.280;2024-03-25T08:49:57;4.20;;;3.80;;
6193;SDS011;3130;41.564;23.280;2024-03-25T08:52:23;3.43;;;3.13;;
6193;SDS011;3130;41.564;23.280;2024-03-25T08:54:49;4.93;;;2.63;;
6193;SDS011;3130;41.564;23.280;2024-03-25T08:57:16;3.93;;;2.80;;
6193;SDS011;3130;41.564;23.280;2024-03-25T08:59:43;3.97;;;3.57;;
6193;SDS011;3130;41.564;23.280;2024-03-25T09:02:09;5.30;;;3.80;;
6193;SDS011;3130;41.564;23.280;2024-03-25T09:04:35;3.13;;;2.87;;
6193;SDS011;3130;41.564;23.280;2024-03-25T09:07:02;3.27;;;3.07;;
6193;SDS011;3130;41.564;23.280;2024-03-25T09:09:28;2.70;;;2.50;;
6193;SDS011;3130;41.564;23.280;2024-03-25T09:12:12;3.93;;;3.50;;
6193;SDS011;3130;41.564;23.280;2024-03-25T09:14:39;6.43;;;3.43;;
6193;SDS011;3130;41.564;23.280;2024-03-25T09:17:06;5.73;;;3.47;;
6193;SDS011;3130;41.564;23.280;2024-03-25T09:19:32;7.27;;;3.53;;
6193;SDS011;3130;41.564;23.280;2024-03-25T09:21:59;3.87;;;3.27;;
6193;SDS011;3130;41.564;23.280;2024-03-25T09:24:25;3.30;;;3.03;;
6193;SDS011;3130;41.564;23.280;2024-03-25T09:26:51;3.40;;;3.10;;
6193;SDS011;3130;41.564;23.280;2024-03-25T09:29:17;3.93;;;3.57;;
6193;SDS011;3130;41.564;23.280;2024-03-25T09:31:44;3.93;;;3.60;;
6193;SDS011;3130;41.564;23.280;2024-03-25T09:34:11;3.53;;;3.23;;
6193;SDS011;3130;41.564;23.280;2024-03-25T09:36:37;5.50;;;4.13;;
6193;SDS011;3130;41.564;23.280;2024-03-25T09:39:04;3.57;;;3.23;;
6193;SDS011;3130;41.564;23.280;2024-03-25T09:41:30;7.10;;;4.40;;
6193;SDS011;3130;41.564;23.280;2024-03-25T09:43:56;3.53;;;3.10;;
6193;SDS011;3130;41.564;23.280;2024-03-25T09:46:23;3.43;;;3.00;;
6193;SDS011;3130;41.564;23.280;2024-03-25T09:48:52;4.63;;;3.70;;
6193;SDS011;3130;41.564;23.280;2024-03-25T09:51:20;3.27;;;2.77;;
6193;SDS011;3130;41.564;23.280;2024-03-25T09:53:46;4.20;;;3.80;;
6193;SDS011;3130;41.564;23.280;2024-03-25T09:56:12;4.13;;;3.73;;
6193;SDS011;3130;41.564;23.280;2024-03-25T09:58:39;4.07;;;3.77;;
6193;SDS011;3130;41.564;23.280;2024-03-25T10:01:06;4.87;;;4.37;;
6193;SDS011;3130;41.564;23.280;2024-03-25T10:03:32;5.23;;;4.73;;
6193;SDS011;3130;41.564;23.280;2024-03-25T10:05:58;6.70;;;3.07;;
6193;SDS011;3130;41.564;23.280;2024-03-25T10:08:26;3.73;;;3.40;;
6193;SDS011;3130;41.564;23.280;2024-03-25T10:10:53;4.53;;;3.50;;
6193;SDS011;3130;41.564;23.280;2024-03-25T10:13:20;4.23;;;2.63;;
6193;SDS011;3130;41.564;23.280;2024-03-25T10:15:47;3.93;;;3.63;;
6193;SDS011;3130;41.564;23.280;2024-03-25T10:18:13;3.73;;;3.43;;
6193;SDS011;3130;41.564;23.280;2024-03-25T10:20:47;5.00;;;1.97;;
6193;SDS011;3130;41.564;23.280;2024-03-25T10:23:13;4.33;;;3.80;;
6193;SDS011;3130;41.564;23.280;2024-03-25T10:25:41;3.30;;;2.77;;
6193;SDS011;3130;41.564;23.280;2024-03-25T10:28:08;3.40;;;3.10;;
6193;SDS011;3130;41.564;23.280;2024-03-25T10:30:34;3.47;;;3.17;;
6193;SDS011;3130;41.564;23.280;2024-03-25T10:33:00;4.07;;;3.03;;
6193;SDS011;3130;41.564;23.280;2024-03-25T10:35:28;5.40;;;4.10;;
6193;SDS011;3130;41.564;23.280;2024-03-25T10:37:55;4.83;;;3.43;;
6193;SDS011;3130;41.564;23.280;2024-03-25T10:40:25;4.33;;;3.87;;
6193;SDS011;3130;41.564;23.280;2024-03-25T10:42:55;4.17;;;3.50;;
6193;SDS011;3130;41.564;23.280;2024-03-25T10:45:27;3.47;;;3.17;;
6193;SDS011;3130;41.564;23.280;2024-03-25T10:47:56;4.10;;;3.70;;
6193;SDS011;3130;41.564;23.280;2024-03-25T10:50:28;4.50;;;3.33;;
6193;SDS011;3130;41.564;23.280;2024-03-25T10:52:56;3.17;;;2.90;;
6193;SDS011;3130;41.564;23.280;2024-03-25T10:55:23;3.03;;;2.73;;
6193;SDS011;3130;41.564;23.280;2024-03-25T10:57:51;7.07;;;5.67;;
6193;SDS011;3130;41.564;23.280;2024-03-25T11:00:22;3.63;;;3.33;;
6193;SDS011;3130;41.564;23.280;2024-03-25T11:02:48;6.93;;;4.60;;
6193;SDS011;3130;41.564;23.280;2024-03-25T11:05:15;4.80;;;4.13;;
6193;SDS011;3130;41.564;23.280;2024-03-25T11:07:41;3.93;;;3.63;;
6193;SDS011;3130;41.564;23.280;2024-03-25T11:10:08;4.43;;;4.03;;
6193;SDS011;3130;41.564;23.280;2024-03-25T11:12:35;5.40;;;4.87;;
6193;SDS011;3130;41.564;23.280;2024-03-25T11:15:04;5.87;;;3.17;;
6193;SDS011;3130;41.564;23.280;2024-03-25T11:17:32;4.10;;;3.43;;
6193;SDS011;3130;41.564;23.280;2024-03-25T11:20:11;2.97;;;2.77;;
6193;SDS011;3130;41.564;23.280;2024-03-25T11:22:47;4.57;;;3.40;;
6193;SDS011;3130;41.564;23.280;2024-03-25T11:25:13;3.80;;;3.30;;
6193;SDS011;3130;41.564;23.280;2024-03-25T11:27:42;4.17;;;3.77;;
6193;SDS011;3130;41.564;23.280;2024-03-25T11:30:11;4.60;;;4.17;;
6193;SDS011;3130;41.564;23.280;2024-03-25T11:32:44;4.07;;;3.67;;
6193;SDS011;3130;41.564;23.280;2024-03-25T11:35:11;3.50;;;3.20;;
6193;SDS011;3130;41.564;23.280;2024-03-25T11:37:41;4.80;;;4.03;;
6193;SDS011;3130;41.564;23.280;2024-03-25T11:40:08;4.37;;;3.10;;
6193;SDS011;3130;41.564;23.280;2024-03-25T11:42:34;5.63;;;5.07;;
6193;SDS011;3130;41.564;23.280;2024-03-25T11:45:01;5.20;;;4.63;;
6193;SDS011;3130;41.564;23.280;2024-03-25T11:47:29;3.30;;;3.00;;
6193;SDS011;3130;41.564;23.280;2024-03-25T11:49:56;2.93;;;2.73;;
6193;SDS011;3130;41.564;23.280;2024-03-25T11:52:22;4.33;;;3.90;;
6193;SDS011;3130;41.564;23.280;2024-03-25T11:54:53;3.73;;;3.40;;
6193;SDS011;3130;41.564;23.280;2024-03-25T11:57:20;4.17;;;3.73;;
6193;SDS011;3130;41.564;23.280;2024-03-25T11:59:47;4.17;;;3.77;;
6193;SDS011;3130;41.564;23.280;2024-03-25T12:02:14;3.43;;;3.13;;
6193;SDS011;3130;41.564;23.280;2024-03-25T12:04:47;4.03;;;3.63;;
6193;SDS011;3130;41.564;23.280;2024-03-25T12:07:13;3.57;;;3.27;;
6193;SDS011;3130;41.564;23.280;2024-03-25T12:09:40;4.20;;;3.67;;
6193;SDS011;3130;41.564;23.280;2024-03-25T12:12:25;4.83;;;4.43;;
6193;SDS011;3130;41.564;23.280;2024-03-25T12:14:52;3.83;;;3.53;;
6193;SDS011;3130;41.564;23.280;2024-03-25T12:17:19;4.63;;;3.80;;
6193;SDS011;3130;41.564;23.280;2024-03-25T12:19:59;4.33;;;3.93;;
6193;SDS011;3130;41.564;23.280;2024-03-25T12:22:29;5.53;;;3.83;;
6193;SDS011;3130;41.564;23.280;2024-03-25T12:24:57;5.13;;;4.03;;
6193;SDS011;3130;41.564;23.280;2024-03-25T12:27:24;4.07;;;3.67;;
6193;SDS011;3130;41.564;23.280;2024-03-25T12:29:59;4.00;;;3.37;;
6193;SDS011;3130;41.564;23.280;2024-03-25T12:32:31;4.13;;;3.47;;
6193;SDS011;3130;41.564;23.280;2024-03-25T12:35:02;3.40;;;3.10;;
6193;SDS011;3130;41.564;23.280;2024-03-25T12:37:32;4.23;;;3.83;;
6193;SDS011;3130;41.564;23.280;2024-03-25T12:39:58;4.23;;;3.83;;
6193;SDS011;3130;41.564;23.280;2024-03-25T12:42:24;4.17;;;3.40;;
6193;SDS011;3130;41.564;23.280;2024-03-25T12:44:51;3.97;;;3.30;;
6193;SDS011;3130;41.564;23.280;2024-03-25T12:47:17;3.70;;;3.20;;
6193;SDS011;3130;41.564;23.280;2024-03-25T12:49:43;2.70;;;2.50;;
6193;SDS011;3130;41.564;23.280;2024-03-25T12:52:11;2.70;;;2.50;;
6193;SDS011;3130;41.564;23.280;2024-03-25T12:54:37;4.17;;;2.97;;
6193;SDS011;3130;41.564;23.280;2024-03-25T12:57:04;6.43;;;3.10;;
6193;SDS011;3130;41.564;23.280;2024-03-25T12:59:30;3.47;;;3.17;;
6193;SDS011;3130;41.564;23.280;2024-03-25T13:01:56;3.20;;;2.90;;
6193;SDS011;3130;41.564;23.280;2024-03-25T13:04:23;4.10;;;3.70;;
6193;SDS011;3130;41.564;23.280;2024-03-25T13:06:49;4.60;;;3.93;;
6193;SDS011;3130;41.564;23.280;2024-03-25T13:09:17;4.27;;;3.17;;
6193;SDS011;3130;41.564;23.280;2024-03-25T13:11:43;5.27;;;3.67;;
6193;SDS011;3130;41.564;23.280;2024-03-25T13:14:10;4.13;;;3.73;;
6193;SDS011;3130;41.564;23.280;2024-03-25T13:16:37;4.90;;;3.60;;
6193;SDS011;3130;41.564;23.280;2024-03-25T13:19:04;3.87;;;3.23;;
6193;SDS011;3130;41.564;23.280;2024-03-25T13:21:30;4.40;;;3.63;;
6193;SDS011;3130;41.564;23.280;2024-03-25T13:23:56;3.50;;;3.20;;
6193;SDS011;3130;41.564;23.280;2024-03-25T13:26:24;4.17;;;3.77;;
6193;SDS011;3130;41.564;23.280;2024-03-25T13:28:50;3.50;;;3.20;;
6193;SDS011;3130;41.564;23.280;2024-03-25T13:31:16;4.53;;;3.50;;
6193;SDS011;3130;41.564;23.280;2024-03-25T13:33:42;3.90;;;3.50;;
6193;SDS011;3130;41.564;23.280;2024-03-25T13:36:08;3.90;;;3.50;;
6193;SDS011;3130;41.564;23.280;2024-03-25T13:38:35;6.80;;;3.93;;
6193;SDS011;3130;41.564;23.280;2024-03-25T13:41:01;3.80;;;3.50;;
6193;SDS011;3130;41.564;23.280;2024-03-25T13:43:29;4.23;;;3.60;;
6193;SDS011;3130;41.564;23.280;2024-03-25T13:45:55;4.70;;;3.77;;
6193;SDS011;3130;41.564;23.280;2024-03-25T13:48:22;3.50;;;3.20;;
6193;SDS011;3130;41.564;23.280;2024-03-25T13:50:48;5.80;;;4.67;;
6193;SDS011;3130;41.564;23.280;2024-03-25T13:53:14;3.97;;;3.63;;
6193;SDS011;3130;41.564;23.280;2024-03-25T13:55:40;5.03;;;4.60;;
6193;SDS011;3130;41.564;23.280;2024-03-25T13:58:07;9.40;;;4.33;;
6193;SDS011;3130;41.564;23.280;2024-03-25T14:00:35;4.30;;;3.90;;
6193;SDS011;3130;41.564;23.280;2024-03-25T14:03:01;4.47;;;4.07;;
6193;SDS011;3130;41.564;23.280;2024-03-25T14:05:29;6.40;;;4.10;;
6193;SDS011;3130;41.564;23.280;2024-03-25T14:07:55;4.60;;;4.07;;
6193;SDS011;3130;41.564;23.280;2024-03-25T14:10:21;4.90;;;4.10;;
6193;SDS011;3130;41.564;23.280;2024-03-25T14:12:48;3.87;;;3.53;;
6193;SDS011;3130;41.564;23.280;2024-03-25T14:15:14;5.00;;;4.17;;
6193;SDS011;3130;41.564;23.280;2024-03-25T14:17:42;3.97;;;3.57;;
6193;SDS011;3130;41.564;23.280;2024-03-25T14:20:08;4.43;;;4.00;;
6193;SDS011;3130;41.564;23.280;2024-03-25T14:22:35;5.30;;;3.40;;
6193;SDS011;3130;41.564;23.280;2024-03-25T14:25:02;4.40;;;3.23;;
6193;SDS011;3130;41.564;23.280;2024-03-25T14:27:28;4.47;;;3.53;;
6193;SDS011;3130;41.564;23.280;2024-03-25T14:29:54;3.80;;;3.40;;
6193;SDS011;3130;41.564;23.280;2024-03-25T14:32:21;4.80;;;3.63;;
6193;SDS011;3130;41.564;23.280;2024-03-25T14:34:49;3.77;;;3.40;;
6193;SDS011;3130;41.564;23.280;2024-03-25T14:37:15;3.20;;;2.60;;
6193;SDS011;3130;41.564;23.280;2024-03-25T14:39:42;4.43;;;3.87;;
6193;SDS011;3130;41.564;23.280;2024-03-25T14:42:08;3.50;;;3.20;;
6193;SDS011;3130;41.564;23.280;2024-03-25T14:44:35;4.27;;;3.87;;
6193;SDS011;3130;41.564;23.280;2024-03-25T14:47:01;4.03;;;3.53;;
6193;SDS011;3130;41.564;23.280;2024-03-25T14:49:28;4.67;;;3.77;;
6193;SDS011;3130;41.564;23.280;2024-03-25T14:51:56;3.47;;;3.17;;
6193;SDS011;3130;41.564;23.280;2024-03-25T14:54:22;5.03;;;3.53;;
6193;SDS011;3130;41.564;23.280;2024-03-25T14:56:58;4.27;;;3.77;;
6193;SDS011;3130;41.564;23.280;2024-03-25T14:59:24;4.40;;;4.00;;
6193;SDS011;3130;41.564;23.280;2024-03-25T15:01:50;4.00;;;3.60;;